Jp Tsubaki — JD2817 — position and weather

sailwx.info

Track history (hours):
 
Tides and Currents Weather Stations Pressure Air Temp Water Temp Dewpoint Dewpoint Depression Visibility Wind Speed Wind Dir Waves Ship Positions

Jp Tsubaki

Last reported at 2014-Jul-31 02:33 UTC. Time now 2014-Jul-31 03:25 UTC.
Position N 35°30' E 139°43'.

Length 115 m; draft 4.4 m.

Type: Cargo ship. MMSI: 431000734.

Date/timePositionNaut miles runAvg speedWind from/ knotsBaromVisibWave heightAir tempDewpointWater temp
2014-Jul-31 02:33N 35°30' E 139°43'0 0.0
2014-Jul-31 01:33N 35°30' E 139°43'0 0.0
2014-Jul-31 00:33N 35°30' E 139°43'0 0.0
2014-Jul-30 23:33N 35°30' E 139°43'0 0.0
2014-Jul-30 22:33N 35°30' E 139°43'6 5.9
2014-Jul-30 21:33N 35°24' E 139°44'1 1.2
2014-Jul-30 20:32N 35°23' E 139°44'0 0.0
2014-Jul-30 19:32N 35°23' E 139°44'0 0.0
2014-Jul-30 18:32N 35°23' E 139°44'0 0.0
2014-Jul-30 17:29N 35°23' E 139°44'0 0.0
2014-Jul-30 16:32N 35°23' E 139°44'0 0.0
2014-Jul-30 15:32N 35°23' E 139°44'0 0.0
2014-Jul-30 14:32N 35°23' E 139°44'3 3.2
2014-Jul-30 13:33N 35°24' E 139°40'1 1.3
2014-Jul-30 12:31N 35°24' E 139°39'0 0.0
2014-Jul-30 11:31N 35°24' E 139°39'0 0.0
2014-Jul-30 10:31N 35°24' E 139°39'0 0.0
2014-Jul-30 09:31N 35°24' E 139°39'0 0.0
2014-Jul-30 08:31N 35°24' E 139°39'0 0.0
2014-Jul-30 07:31N 35°24' E 139°39'0 0.0
2014-Jul-30 06:31N 35°24' E 139°39'0 0.0
2014-Jul-30 05:31N 35°24' E 139°39'0 0.5
2014-Jul-30 04:33N 35°24' E 139°39'1 0.8
2014-Jul-30 03:33N 35°24' E 139°40'0 0.0
2014-Jul-30 02:33N 35°24' E 139°40'0 0.0
2014-Jul-30 01:33N 35°24' E 139°40'0 0.0
2014-Jul-30 00:33N 35°24' E 139°40'0 0.0
2014-Jul-29 23:33N 35°24' E 139°40'0 0.0
2014-Jul-29 22:33N 35°24' E 139°40'3 2.6
2014-Jul-29 21:33N 35°23' E 139°43'1 1.4
2014-Jul-29 20:32N 35°22' E 139°44'0 0.1
2014-Jul-29 19:32N 35°22' E 139°44'0 0.0
2014-Jul-29 18:32N 35°22' E 139°44'0 0.1
2014-Jul-29 17:32N 35°22' E 139°44'0 0.0
2014-Jul-29 16:32N 35°22' E 139°44'0 0.0
2014-Jul-29 15:32N 35°22' E 139°44'0 0.1
2014-Jul-29 14:32N 35°22' E 139°44'2 2.1
2014-Jul-29 13:33N 35°22' E 139°42'3 3.2
2014-Jul-29 12:33N 35°24' E 139°39'0 0.0
2014-Jul-29 11:33N 35°24' E 139°39'0 0.0
2014-Jul-29 10:33N 35°24' E 139°39'0 0.0
2014-Jul-29 09:33N 35°24' E 139°39'0 0.0
2014-Jul-29 08:33N 35°24' E 139°39'0 0.0
2014-Jul-29 07:33N 35°24' E 139°39'0 0.0
2014-Jul-29 06:33N 35°24' E 139°39'0 0.0
2014-Jul-29 05:33N 35°24' E 139°39'0 0.0
2014-Jul-29 04:33N 35°24' E 139°39'0 0.0
2014-Jul-29 03:33N 35°24' E 139°39'0 0.0
2014-Jul-29 02:33N 35°24' E 139°39'0 0.0
2014-Jul-29 01:33N 35°24' E 139°39'0 0.0
2014-Jul-29 00:33N 35°24' E 139°38'0 0.0
2014-Jul-28 23:33N 35°24' E 139°39'0 0.0
2014-Jul-28 22:33N 35°24' E 139°39'0 0.0
2014-Jul-28 21:33N 35°24' E 139°39'0 0.0
2014-Jul-28 20:33N 35°24' E 139°39'0 0.0
2014-Jul-28 19:33N 35°24' E 139°39'0 0.0
2014-Jul-28 18:33N 35°24' E 139°39'0 0.0
2014-Jul-28 17:33N 35°24' E 139°39'0 0.0
2014-Jul-28 16:33N 35°24' E 139°39'0 0.0
2014-Jul-28 15:33N 35°24' E 139°39'0 0.0
2014-Jul-28 14:33N 35°24' E 139°39'0 0.0
2014-Jul-28 13:33N 35°24' E 139°39'0 0.0
2014-Jul-28 12:33N 35°24' E 139°39'0 0.0
2014-Jul-28 11:33N 35°24' E 139°39'0 0.0
2014-Jul-28 10:33N 35°24' E 139°39'0 0.0
2014-Jul-28 09:33N 35°24' E 139°39'0 0.0
2014-Jul-28 08:33N 35°24' E 139°39'0 0.0
2014-Jul-28 07:33N 35°24' E 139°39'0 0.0
2014-Jul-28 06:33N 35°24' E 139°39'0 0.0
2014-Jul-28 05:33N 35°24' E 139°39'0 0.2
2014-Jul-28 04:34N 35°24' E 139°38'5 4.9
2014-Jul-28 03:33N 35°23' E 139°44'0 0.0
2014-Jul-28 02:33N 35°23' E 139°44'0 0.0
2014-Jul-28 01:33N 35°23' E 139°44'0 0.0
2014-Jul-28 00:33N 35°23' E 139°44'1 1.4
2014-Jul-27 23:34N 35°24' E 139°45'6 5.8
2014-Jul-27 22:34N 35°30' E 139°43'0 0.2
2014-Jul-27 21:33N 35°30' E 139°43'0 0.0
2014-Jul-27 20:33N 35°30' E 139°43'0 0.0
2014-Jul-27 19:33N 35°30' E 139°43'0 0.0
2014-Jul-27 18:33N 35°30' E 139°43'0 0.0
2014-Jul-27 17:33N 35°30' E 139°43'0 0.0
2014-Jul-27 16:33N 35°30' E 139°43'0 0.0
2014-Jul-27 15:33N 35°30' E 139°43'0 0.0
2014-Jul-27 14:33N 35°30' E 139°43'0 0.0
2014-Jul-27 13:33N 35°30' E 139°43'0 0.0
2014-Jul-27 12:33N 35°30' E 139°43'0 0.0
2014-Jul-27 11:33N 35°30' E 139°43'0 0.0
2014-Jul-27 10:33N 35°30' E 139°43'0 0.0
2014-Jul-27 09:33N 35°30' E 139°43'0 0.0
2014-Jul-27 08:33N 35°30' E 139°43'0 0.0
2014-Jul-27 07:33N 35°30' E 139°43'0 0.0
2014-Jul-27 06:33N 35°30' E 139°43'0 0.0
2014-Jul-27 05:33N 35°30' E 139°43'0 0.0
2014-Jul-27 04:33N 35°30' E 139°43'0 0.0
2014-Jul-27 03:30N 35°30' E 139°43'0 0.0
2014-Jul-27 02:33N 35°30' E 139°43'0 0.0
2014-Jul-27 01:33N 35°30' E 139°43'0 0.0
2014-Jul-27 00:30N 35°30' E 139°43'1 1.0
2014-Jul-26 23:33N 35°29' E 139°42'6 6.3
2014-Jul-26 22:33N 35°23' E 139°45'0 0.0
2014-Jul-26 21:28N 35°23' E 139°44'0 0.0
2014-Jul-26 20:31N 35°23' E 139°44'0 0.0
2014-Jul-26 19:31N 35°23' E 139°44'0 0.0
2014-Jul-26 18:31N 35°23' E 139°44'0 0.0
2014-Jul-26 17:31N 35°23' E 139°44'0 0.1
2014-Jul-26 16:31N 35°23' E 139°45'0 0.0
2014-Jul-26 15:31N 35°23' E 139°45'0 0.1
2014-Jul-26 14:31N 35°23' E 139°44'1 0.5
2014-Jul-26 13:34N 35°23' E 139°44'5 4.4
2014-Jul-26 12:31N 35°24' E 139°39'0 0.1
2014-Jul-26 11:31N 35°24' E 139°39'0 0.0
2014-Jul-26 10:31N 35°24' E 139°39'0 0.0
2014-Jul-26 09:31N 35°24' E 139°39'0 0.0
2014-Jul-26 08:31N 35°24' E 139°39'0 0.0
2014-Jul-26 07:31N 35°24' E 139°39'0 0.0
2014-Jul-26 06:31N 35°24' E 139°39'0 0.0
2014-Jul-26 05:31N 35°24' E 139°39'0 0.0
2014-Jul-26 04:31N 35°24' E 139°39'0 0.0
2014-Jul-26 03:31N 35°24' E 139°39'0 0.0
2014-Jul-26 02:31N 35°24' E 139°39'0 0.0
2014-Jul-26 01:31N 35°24' E 139°39'0 0.0
2014-Jul-26 00:31N 35°24' E 139°39'0 0.0
2014-Jul-25 23:31N 35°24' E 139°39'0 0.0
2014-Jul-25 22:31N 35°24' E 139°39'0 0.0
2014-Jul-25 21:31N 35°24' E 139°39'0 0.0
2014-Jul-25 20:28N 35°24' E 139°39'0 0.0
2014-Jul-25 19:31N 35°24' E 139°39'0 0.0
2014-Jul-25 18:31N 35°24' E 139°39'0 0.0
2014-Jul-25 17:31N 35°24' E 139°39'0 0.0
2014-Jul-25 16:31N 35°24' E 139°39'0 0.0
2014-Jul-25 15:25N 35°24' E 139°39'0 0.0
2014-Jul-25 14:31N 35°24' E 139°39'4 3.7
2014-Jul-25 13:33N 35°25' E 139°43'5 4.9
2014-Jul-25 12:33N 35°30' E 139°43'0 0.3
2014-Jul-25 11:33N 35°30' E 139°43'0 0.0
2014-Jul-25 10:33N 35°30' E 139°43'0 0.0
2014-Jul-25 09:33N 35°30' E 139°43'0 0.0
2014-Jul-25 08:33N 35°30' E 139°43'0 0.0
2014-Jul-25 07:33N 35°30' E 139°43'0 0.0
2014-Jul-25 06:33N 35°30' E 139°43'0 0.0
2014-Jul-25 05:33N 35°30' E 139°43'1 1.2
2014-Jul-25 04:34N 35°29' E 139°42'6 5.6
2014-Jul-25 03:33N 35°24' E 139°39'0 0.0
2014-Jul-25 02:33N 35°24' E 139°39'0 0.0
2014-Jul-25 01:33N 35°24' E 139°39'0 0.0
2014-Jul-25 00:33N 35°24' E 139°39'0 0.0
2014-Jul-24 23:33N 35°24' E 139°39'0 0.0
2014-Jul-24 22:33N 35°24' E 139°39'0 0.0
2014-Jul-24 21:33N 35°24' E 139°39'0 0.0
2014-Jul-24 20:33N 35°24' E 139°39'0 0.0
2014-Jul-24 19:33N 35°24' E 139°39'0 0.0
2014-Jul-24 18:33N 35°24' E 139°39'0 0.0
2014-Jul-24 17:33N 35°24' E 139°39'0 0.0
2014-Jul-24 16:33N 35°24' E 139°39'0 0.0
2014-Jul-24 15:33N 35°24' E 139°39'0 0.0
2014-Jul-24 14:33N 35°24' E 139°39'4 3.7
2014-Jul-24 13:33N 35°25' E 139°43'5 4.9
2014-Jul-24 12:33N 35°30' E 139°43'0 0.3
2014-Jul-24 11:33N 35°30' E 139°43'0 0.0
2014-Jul-24 10:33N 35°30' E 139°43'0 0.0
2014-Jul-24 09:33N 35°30' E 139°43'0 0.0
2014-Jul-24 08:33N 35°30' E 139°43'0 0.0
2014-Jul-24 07:33N 35°30' E 139°43'0 0.0
2014-Jul-24 06:33N 35°30' E 139°43'0 0.0
2014-Jul-24 05:33N 35°30' E 139°43'2 2.5
2014-Jul-24 04:33N 35°27' E 139°43'5 4.7
2014-Jul-24 03:33N 35°24' E 139°39'0 0.0
2014-Jul-24 02:31N 35°24' E 139°39'0 0.0
2014-Jul-24 01:31N 35°24' E 139°39'0 0.0
2014-Jul-24 00:31N 35°24' E 139°39'0 0.0
2014-Jul-23 23:31N 35°24' E 139°39'0 0.0
2014-Jul-23 22:31N 35°24' E 139°39'0 0.0
2014-Jul-23 21:31N 35°24' E 139°39'0 0.0
2014-Jul-23 20:31N 35°24' E 139°39'0 0.0
2014-Jul-23 19:31N 35°24' E 139°39'0 0.0
2014-Jul-23 18:31N 35°24' E 139°39'0 0.0
2014-Jul-23 17:31N 35°24' E 139°39'0 0.1
2014-Jul-23 16:31N 35°24' E 139°39'0 0.1
2014-Jul-23 15:31N 35°24' E 139°39'0 0.0
2014-Jul-23 14:33N 35°24' E 139°39'5 5.1
2014-Jul-23 13:33N 35°26' E 139°44'4 3.7
2014-Jul-23 12:33N 35°30' E 139°43'0 0.2
2014-Jul-23 11:31N 35°30' E 139°43'0 0.0
2014-Jul-23 10:31N 35°30' E 139°43'0 0.0
2014-Jul-23 09:31N 35°30' E 139°43'0 0.0
2014-Jul-23 08:31N 35°30' E 139°43'0 0.0
2014-Jul-23 07:28N 35°30' E 139°43'0 0.0
2014-Jul-23 06:31N 35°30' E 139°43'0 0.0
2014-Jul-23 05:31N 35°30' E 139°43'2 1.9
2014-Jul-23 04:33N 35°28' E 139°42'5 5.0
2014-Jul-23 03:33N 35°24' E 139°39'0 0.0
2014-Jul-23 02:32N 35°24' E 139°39'0 0.0
2014-Jul-23 01:32N 35°24' E 139°39'0 0.0
2014-Jul-23 00:32N 35°24' E 139°39'0 0.0
2014-Jul-22 23:32N 35°24' E 139°39'0 0.0
2014-Jul-22 22:32N 35°24' E 139°39'0 0.0
2014-Jul-22 21:32N 35°24' E 139°39'0 0.0
2014-Jul-22 20:32N 35°24' E 139°39'0 0.0
2014-Jul-22 19:32N 35°24' E 139°39'0 0.0
2014-Jul-22 18:32N 35°24' E 139°39'0 0.0
2014-Jul-22 17:32N 35°24' E 139°39'0 0.0
2014-Jul-22 16:32N 35°24' E 139°39'0 0.0
2014-Jul-22 15:29N 35°24' E 139°39'0 0.0
2014-Jul-22 14:32N 35°24' E 139°39'0 0.2
2014-Jul-22 13:34N 35°24' E 139°39'9 9.2
2014-Jul-22 12:34N 35°30' E 139°48'4 3.7
2014-Jul-22 11:33N 35°30' E 139°43'0 0.0
2014-Jul-22 10:33N 35°30' E 139°43'0 0.0
2014-Jul-22 09:33N 35°30' E 139°43'0 0.0
2014-Jul-22 08:30N 35°30' E 139°43'0 0.0
2014-Jul-22 07:33N 35°30' E 139°43'0 0.0
2014-Jul-22 06:33N 35°30' E 139°43'0 0.0
2014-Jul-22 05:33N 35°30' E 139°43'0 0.0
2014-Jul-22 04:33N 35°30' E 139°43'0 0.0
2014-Jul-22 03:33N 35°30' E 139°43'0 0.0
2014-Jul-22 02:33N 35°30' E 139°43'0 0.0
2014-Jul-22 01:33N 35°30' E 139°43'0 0.0
2014-Jul-22 00:33N 35°30' E 139°43'0 0.0
2014-Jul-21 23:33N 35°30' E 139°43'5 4.6
2014-Jul-21 22:33N 35°25' E 139°44'2 2.0
2014-Jul-21 21:32N 35°23' E 139°45'0 0.1
2014-Jul-21 20:32N 35°23' E 139°45'0 0.0
2014-Jul-21 20:17N 35°23' E 139°45'0 0.0
2014-Jul-21 19:32N 35°23' E 139°45'0 0.1
2014-Jul-21 18:32N 35°23' E 139°45'0 0.0
2014-Jul-21 17:32N 35°23' E 139°45'0 0.0
2014-Jul-21 16:32N 35°23' E 139°45'0 0.0
2014-Jul-21 15:32N 35°23' E 139°45'0 0.0
2014-Jul-21 14:32N 35°23' E 139°45'0 0.0
2014-Jul-21 13:32N 35°23' E 139°45'5 5.1
2014-Jul-21 12:33N 35°24' E 139°39'0 0.0
2014-Jul-21 11:33N 35°24' E 139°39'0 0.0
2014-Jul-21 10:33N 35°24' E 139°39'0 0.0
2014-Jul-21 09:33N 35°24' E 139°39'0 0.0
2014-Jul-21 08:33N 35°24' E 139°39'0 0.0
2014-Jul-21 07:33N 35°24' E 139°39'0 0.2
2014-Jul-21 06:33N 35°24' E 139°39'5 4.9
2014-Jul-21 05:33N 35°23' E 139°44'0 0.0
2014-Jul-21 04:29N 35°23' E 139°44'0 0.0
2014-Jul-21 03:32N 35°23' E 139°44'  
Track history (hours):
 
Tides and Currents Weather Stations Pressure Air Temp Water Temp Dewpoint Dewpoint Depression Visibility Wind Speed Wind Dir Waves Ship Positions

Jp Tsubaki

Last reported at 2014-Jul-31 02:33 UTC. Time now 2014-Jul-31 03:25 UTC.
Position N 35°30' E 139°43'.

Length 115 m; draft 4.4 m.

Type: Cargo ship. MMSI: 431000734.

Date/timePositionNaut miles runAvg speedWind from/ knotsBaromVisibWave heightAir tempDewpointWater temp
2014-Jul-31 02:33N 35°30' E 139°43'0 0.0
2014-Jul-31 01:33N 35°30' E 139°43'0 0.0
2014-Jul-31 00:33N 35°30' E 139°43'0 0.0
2014-Jul-30 23:33N 35°30' E 139°43'0 0.0
2014-Jul-30 22:33N 35°30' E 139°43'6 5.9
2014-Jul-30 21:33N 35°24' E 139°44'1 1.2
2014-Jul-30 20:32N 35°23' E 139°44'0 0.0
2014-Jul-30 19:32N 35°23' E 139°44'0 0.0
2014-Jul-30 18:32N 35°23' E 139°44'0 0.0
2014-Jul-30 17:29N 35°23' E 139°44'0 0.0
2014-Jul-30 16:32N 35°23' E 139°44'0 0.0
2014-Jul-30 15:32N 35°23' E 139°44'0 0.0
2014-Jul-30 14:32N 35°23' E 139°44'3 3.2
2014-Jul-30 13:33N 35°24' E 139°40'1 1.3
2014-Jul-30 12:31N 35°24' E 139°39'0 0.0
2014-Jul-30 11:31N 35°24' E 139°39'0 0.0
2014-Jul-30 10:31N 35°24' E 139°39'0 0.0
2014-Jul-30 09:31N 35°24' E 139°39'0 0.0
2014-Jul-30 08:31N 35°24' E 139°39'0 0.0
2014-Jul-30 07:31N 35°24' E 139°39'0 0.0
2014-Jul-30 06:31N 35°24' E 139°39'0 0.0
2014-Jul-30 05:31N 35°24' E 139°39'0 0.5
2014-Jul-30 04:33N 35°24' E 139°39'1 0.8
2014-Jul-30 03:33N 35°24' E 139°40'0 0.0
2014-Jul-30 02:33N 35°24' E 139°40'0 0.0
2014-Jul-30 01:33N 35°24' E 139°40'0 0.0
2014-Jul-30 00:33N 35°24' E 139°40'0 0.0
2014-Jul-29 23:33N 35°24' E 139°40'0 0.0
2014-Jul-29 22:33N 35°24' E 139°40'3 2.6
2014-Jul-29 21:33N 35°23' E 139°43'1 1.4
2014-Jul-29 20:32N 35°22' E 139°44'0 0.1
2014-Jul-29 19:32N 35°22' E 139°44'0 0.0
2014-Jul-29 18:32N 35°22' E 139°44'0 0.1
2014-Jul-29 17:32N 35°22' E 139°44'0 0.0
2014-Jul-29 16:32N 35°22' E 139°44'0 0.0
2014-Jul-29 15:32N 35°22' E 139°44'0 0.1
2014-Jul-29 14:32N 35°22' E 139°44'2 2.1
2014-Jul-29 13:33N 35°22' E 139°42'3 3.2
2014-Jul-29 12:33N 35°24' E 139°39'0 0.0
2014-Jul-29 11:33N 35°24' E 139°39'0 0.0
2014-Jul-29 10:33N 35°24' E 139°39'0 0.0
2014-Jul-29 09:33N 35°24' E 139°39'0 0.0
2014-Jul-29 08:33N 35°24' E 139°39'0 0.0
2014-Jul-29 07:33N 35°24' E 139°39'0 0.0
2014-Jul-29 06:33N 35°24' E 139°39'0 0.0
2014-Jul-29 05:33N 35°24' E 139°39'0 0.0
2014-Jul-29 04:33N 35°24' E 139°39'0 0.0
2014-Jul-29 03:33N 35°24' E 139°39'0 0.0
2014-Jul-29 02:33N 35°24' E 139°39'0 0.0
2014-Jul-29 01:33N 35°24' E 139°39'0 0.0
2014-Jul-29 00:33N 35°24' E 139°38'0 0.0
2014-Jul-28 23:33N 35°24' E 139°39'0 0.0
2014-Jul-28 22:33N 35°24' E 139°39'0 0.0
2014-Jul-28 21:33N 35°24' E 139°39'0 0.0
2014-Jul-28 20:33N 35°24' E 139°39'0 0.0
2014-Jul-28 19:33N 35°24' E 139°39'0 0.0
2014-Jul-28 18:33N 35°24' E 139°39'0 0.0
2014-Jul-28 17:33N 35°24' E 139°39'0 0.0
2014-Jul-28 16:33N 35°24' E 139°39'0 0.0
2014-Jul-28 15:33N 35°24' E 139°39'0 0.0
2014-Jul-28 14:33N 35°24' E 139°39'0 0.0
2014-Jul-28 13:33N 35°24' E 139°39'0 0.0
2014-Jul-28 12:33N 35°24' E 139°39'0 0.0
2014-Jul-28 11:33N 35°24' E 139°39'0 0.0
2014-Jul-28 10:33N 35°24' E 139°39'0 0.0
2014-Jul-28 09:33N 35°24' E 139°39'0 0.0
2014-Jul-28 08:33N 35°24' E 139°39'0 0.0
2014-Jul-28 07:33N 35°24' E 139°39'0 0.0
2014-Jul-28 06:33N 35°24' E 139°39'0 0.0
2014-Jul-28 05:33N 35°24' E 139°39'0 0.2
2014-Jul-28 04:34N 35°24' E 139°38'5 4.9
2014-Jul-28 03:33N 35°23' E 139°44'0 0.0
2014-Jul-28 02:33N 35°23' E 139°44'0 0.0
2014-Jul-28 01:33N 35°23' E 139°44'0 0.0
2014-Jul-28 00:33N 35°23' E 139°44'1 1.4
2014-Jul-27 23:34N 35°24' E 139°45'6 5.8
2014-Jul-27 22:34N 35°30' E 139°43'0 0.2
2014-Jul-27 21:33N 35°30' E 139°43'0 0.0
2014-Jul-27 20:33N 35°30' E 139°43'0 0.0
2014-Jul-27 19:33N 35°30' E 139°43'0 0.0
2014-Jul-27 18:33N 35°30' E 139°43'0 0.0
2014-Jul-27 17:33N 35°30' E 139°43'0 0.0
2014-Jul-27 16:33N 35°30' E 139°43'0 0.0
2014-Jul-27 15:33N 35°30' E 139°43'0 0.0
2014-Jul-27 14:33N 35°30' E 139°43'0 0.0
2014-Jul-27 13:33N 35°30' E 139°43'0 0.0
2014-Jul-27 12:33N 35°30' E 139°43'0 0.0
2014-Jul-27 11:33N 35°30' E 139°43'0 0.0
2014-Jul-27 10:33N 35°30' E 139°43'0 0.0
2014-Jul-27 09:33N 35°30' E 139°43'0 0.0
2014-Jul-27 08:33N 35°30' E 139°43'0 0.0
2014-Jul-27 07:33N 35°30' E 139°43'0 0.0
2014-Jul-27 06:33N 35°30' E 139°43'0 0.0
2014-Jul-27 05:33N 35°30' E 139°43'0 0.0
2014-Jul-27 04:33N 35°30' E 139°43'0 0.0
2014-Jul-27 03:30N 35°30' E 139°43'0 0.0
2014-Jul-27 02:33N 35°30' E 139°43'0 0.0
2014-Jul-27 01:33N 35°30' E 139°43'0 0.0
2014-Jul-27 00:30N 35°30' E 139°43'1 1.0
2014-Jul-26 23:33N 35°29' E 139°42'6 6.3
2014-Jul-26 22:33N 35°23' E 139°45'0 0.0
2014-Jul-26 21:28N 35°23' E 139°44'0 0.0
2014-Jul-26 20:31N 35°23' E 139°44'0 0.0
2014-Jul-26 19:31N 35°23' E 139°44'0 0.0
2014-Jul-26 18:31N 35°23' E 139°44'0 0.0
2014-Jul-26 17:31N 35°23' E 139°44'0 0.1
2014-Jul-26 16:31N 35°23' E 139°45'0 0.0
2014-Jul-26 15:31N 35°23' E 139°45'0 0.1
2014-Jul-26 14:31N 35°23' E 139°44'1 0.5
2014-Jul-26 13:34N 35°23' E 139°44'5 4.4
2014-Jul-26 12:31N 35°24' E 139°39'0 0.1
2014-Jul-26 11:31N 35°24' E 139°39'0 0.0
2014-Jul-26 10:31N 35°24' E 139°39'0 0.0
2014-Jul-26 09:31N 35°24' E 139°39'0 0.0
2014-Jul-26 08:31N 35°24' E 139°39'0 0.0
2014-Jul-26 07:31N 35°24' E 139°39'0 0.0
2014-Jul-26 06:31N 35°24' E 139°39'0 0.0
2014-Jul-26 05:31N 35°24' E 139°39'0 0.0
2014-Jul-26 04:31N 35°24' E 139°39'0 0.0
2014-Jul-26 03:31N 35°24' E 139°39'0 0.0
2014-Jul-26 02:31N 35°24' E 139°39'0 0.0
2014-Jul-26 01:31N 35°24' E 139°39'0 0.0
2014-Jul-26 00:31N 35°24' E 139°39'0 0.0
2014-Jul-25 23:31N 35°24' E 139°39'0 0.0
2014-Jul-25 22:31N 35°24' E 139°39'0 0.0
2014-Jul-25 21:31N 35°24' E 139°39'0 0.0
2014-Jul-25 20:28N 35°24' E 139°39'0 0.0
2014-Jul-25 19:31N 35°24' E 139°39'0 0.0
2014-Jul-25 18:31N 35°24' E 139°39'0 0.0
2014-Jul-25 17:31N 35°24' E 139°39'0 0.0
2014-Jul-25 16:31N 35°24' E 139°39'0 0.0
2014-Jul-25 15:25N 35°24' E 139°39'0 0.0
2014-Jul-25 14:31N 35°24' E 139°39'4 3.7
2014-Jul-25 13:33N 35°25' E 139°43'5 4.9
2014-Jul-25 12:33N 35°30' E 139°43'0 0.3
2014-Jul-25 11:33N 35°30' E 139°43'0 0.0
2014-Jul-25 10:33N 35°30' E 139°43'0 0.0
2014-Jul-25 09:33N 35°30' E 139°43'0 0.0
2014-Jul-25 08:33N 35°30' E 139°43'0 0.0
2014-Jul-25 07:33N 35°30' E 139°43'0 0.0
2014-Jul-25 06:33N 35°30' E 139°43'0 0.0
2014-Jul-25 05:33N 35°30' E 139°43'1 1.2
2014-Jul-25 04:34N 35°29' E 139°42'6 5.6
2014-Jul-25 03:33N 35°24' E 139°39'0 0.0
2014-Jul-25 02:33N 35°24' E 139°39'0 0.0
2014-Jul-25 01:33N 35°24' E 139°39'0 0.0
2014-Jul-25 00:33N 35°24' E 139°39'0 0.0
2014-Jul-24 23:33N 35°24' E 139°39'0 0.0
2014-Jul-24 22:33N 35°24' E 139°39'0 0.0
2014-Jul-24 21:33N 35°24' E 139°39'0 0.0
2014-Jul-24 20:33N 35°24' E 139°39'0 0.0
2014-Jul-24 19:33N 35°24' E 139°39'0 0.0
2014-Jul-24 18:33N 35°24' E 139°39'0 0.0
2014-Jul-24 17:33N 35°24' E 139°39'0 0.0
2014-Jul-24 16:33N 35°24' E 139°39'0 0.0
2014-Jul-24 15:33N 35°24' E 139°39'0 0.0
2014-Jul-24 14:33N 35°24' E 139°39'4 3.7
2014-Jul-24 13:33N 35°25' E 139°43'5 4.9
2014-Jul-24 12:33N 35°30' E 139°43'0 0.3
2014-Jul-24 11:33N 35°30' E 139°43'0 0.0
2014-Jul-24 10:33N 35°30' E 139°43'0 0.0
2014-Jul-24 09:33N 35°30' E 139°43'0 0.0
2014-Jul-24 08:33N 35°30' E 139°43'0 0.0
2014-Jul-24 07:33N 35°30' E 139°43'0 0.0
2014-Jul-24 06:33N 35°30' E 139°43'0 0.0
2014-Jul-24 05:33N 35°30' E 139°43'2 2.5
2014-Jul-24 04:33N 35°27' E 139°43'5 4.7
2014-Jul-24 03:33N 35°24' E 139°39'0 0.0
2014-Jul-24 02:31N 35°24' E 139°39'0 0.0
2014-Jul-24 01:31N 35°24' E 139°39'0 0.0
2014-Jul-24 00:31N 35°24' E 139°39'0 0.0
2014-Jul-23 23:31N 35°24' E 139°39'0 0.0
2014-Jul-23 22:31N 35°24' E 139°39'0 0.0
2014-Jul-23 21:31N 35°24' E 139°39'0 0.0
2014-Jul-23 20:31N 35°24' E 139°39'0 0.0
2014-Jul-23 19:31N 35°24' E 139°39'0 0.0
2014-Jul-23 18:31N 35°24' E 139°39'0 0.0
2014-Jul-23 17:31N 35°24' E 139°39'0 0.1
2014-Jul-23 16:31N 35°24' E 139°39'0 0.1
2014-Jul-23 15:31N 35°24' E 139°39'0 0.0
2014-Jul-23 14:33N 35°24' E 139°39'5 5.1
2014-Jul-23 13:33N 35°26' E 139°44'4 3.7
2014-Jul-23 12:33N 35°30' E 139°43'0 0.2
2014-Jul-23 11:31N 35°30' E 139°43'0 0.0
2014-Jul-23 10:31N 35°30' E 139°43'0 0.0
2014-Jul-23 09:31N 35°30' E 139°43'0 0.0
2014-Jul-23 08:31N 35°30' E 139°43'0 0.0
2014-Jul-23 07:28N 35°30' E 139°43'0 0.0
2014-Jul-23 06:31N 35°30' E 139°43'0 0.0
2014-Jul-23 05:31N 35°30' E 139°43'2 1.9
2014-Jul-23 04:33N 35°28' E 139°42'5 5.0
2014-Jul-23 03:33N 35°24' E 139°39'0 0.0
2014-Jul-23 02:32N 35°24' E 139°39'0 0.0
2014-Jul-23 01:32N 35°24' E 139°39'0 0.0
2014-Jul-23 00:32N 35°24' E 139°39'0 0.0
2014-Jul-22 23:32N 35°24' E 139°39'0 0.0
2014-Jul-22 22:32N 35°24' E 139°39'0 0.0
2014-Jul-22 21:32N 35°24' E 139°39'0 0.0
2014-Jul-22 20:32N 35°24' E 139°39'0 0.0
2014-Jul-22 19:32N 35°24' E 139°39'0 0.0
2014-Jul-22 18:32N 35°24' E 139°39'0 0.0
2014-Jul-22 17:32N 35°24' E 139°39'0 0.0
2014-Jul-22 16:32N 35°24' E 139°39'0 0.0
2014-Jul-22 15:29N 35°24' E 139°39'0 0.0
2014-Jul-22 14:32N 35°24' E 139°39'0 0.2
2014-Jul-22 13:34N 35°24' E 139°39'9 9.2
2014-Jul-22 12:34N 35°30' E 139°48'4 3.7
2014-Jul-22 11:33N 35°30' E 139°43'0 0.0
2014-Jul-22 10:33N 35°30' E 139°43'0 0.0
2014-Jul-22 09:33N 35°30' E 139°43'0 0.0
2014-Jul-22 08:30N 35°30' E 139°43'0 0.0
2014-Jul-22 07:33N 35°30' E 139°43'0 0.0
2014-Jul-22 06:33N 35°30' E 139°43'0 0.0
2014-Jul-22 05:33N 35°30' E 139°43'0 0.0
2014-Jul-22 04:33N 35°30' E 139°43'0 0.0
2014-Jul-22 03:33N 35°30' E 139°43'0 0.0
2014-Jul-22 02:33N 35°30' E 139°43'0 0.0
2014-Jul-22 01:33N 35°30' E 139°43'0 0.0
2014-Jul-22 00:33N 35°30' E 139°43'0 0.0
2014-Jul-21 23:33N 35°30' E 139°43'5 4.6
2014-Jul-21 22:33N 35°25' E 139°44'2 2.0
2014-Jul-21 21:32N 35°23' E 139°45'0 0.1
2014-Jul-21 20:32N 35°23' E 139°45'0 0.0
2014-Jul-21 20:17N 35°23' E 139°45'0 0.0
2014-Jul-21 19:32N 35°23' E 139°45'0 0.1
2014-Jul-21 18:32N 35°23' E 139°45'0 0.0
2014-Jul-21 17:32N 35°23' E 139°45'0 0.0
2014-Jul-21 16:32N 35°23' E 139°45'0 0.0
2014-Jul-21 15:32N 35°23' E 139°45'0 0.0
2014-Jul-21 14:32N 35°23' E 139°45'0 0.0
2014-Jul-21 13:32N 35°23' E 139°45'5 5.1
2014-Jul-21 12:33N 35°24' E 139°39'0 0.0
2014-Jul-21 11:33N 35°24' E 139°39'0 0.0
2014-Jul-21 10:33N 35°24' E 139°39'0 0.0
2014-Jul-21 09:33N 35°24' E 139°39'0 0.0
2014-Jul-21 08:33N 35°24' E 139°39'0 0.0
2014-Jul-21 07:33N 35°24' E 139°39'0 0.2
2014-Jul-21 06:33N 35°24' E 139°39'5 4.9
2014-Jul-21 05:33N 35°23' E 139°44'0 0.0
2014-Jul-21 04:29N 35°23' E 139°44'0 0.0
2014-Jul-21 03:32N 35°23' E 139°44'  

Dump ship's entire track history